Weather

DAILY 7 DAY TOTAL
onrain

Note: Some stations are located near irrigated fields and may also report irrigation

Alliston Mount Forest Blyth Guelph Grand Bend Strathroy Woodstock Belmont Simcoe Leamington Chatham West Lorne






West Lorne - Historical Weather Data
Date Max Temp (°C) Min Temp (°C) Avg Temp (°C) Rain (mm) 7Day Rain(mm) Total Rain(mm) Avg RH (%)
9/18/2017 27.2 17.7 20.8 0.0 0.0 308.2 94.9
9/17/2017 27.6 12.6 19.6 0.0 0.0 308.2 92.1
9/16/2017 26.8 12.9 19.2 0.0 0.0 308.2 88.9
9/15/2017 24.9 11.2 17.6 0.0 0.0 308.2 91.3
9/14/2017 25.0 13.4 19.0 0.0 1.2 308.2 90.9
9/13/2017 25.3 8.6 17.6 0.0 1.4 308.2 90.7
9/12/2017 26.1 5.5 15.0 0.0 2.4 308.2 87.0
9/11/2017 22.2 4.6 13.2 0.0 9.0 308.2 88.4
9/10/2017 20.5 3.9 11.9 0.0 20.2 308.2 87.2
9/9/2017 20.7 3.1 11.2 0.0 24.0 308.2 82.5
9/8/2017 18.0 6.2 12.0 1.2 27.0 308.2 93.5
9/7/2017 18.8 6.5 12.5 0.2 25.8 307.0 90.5
9/6/2017 18.8 6.8 13.1 1.0 25.6 306.8 90.3
9/5/2017 21.6 11.8 15.9 6.6 24.6 305.8 92.1
9/4/2017 25.2 14.3 19.1 11.2 20.0 299.2 90.2
9/3/2017 21.8 13.2 16.4 3.8 14.0 288.0 92.5
9/2/2017 19.9 7.5 13.6 3.0 10.2 284.2 89.1
9/1/2017 18.2 4.2 11.3 0.0 7.2 281.2 85.3
8/31/2017 23.2 8.8 17.0 0.0 7.2 281.2 85.0
8/30/2017 25.5 13.2 19.0 0.0 7.2 281.2 93.5
8/29/2017 21.8 15.7 18.6 2.0 7.2 281.2 94.7
8/28/2017 23.0 14.8 19.1 5.2 8.6 279.2 93.1
8/27/2017 23.5 7.7 16.1 0.0 3.4 274.0 87.3
8/26/2017 24.2 3.8 13.8 0.0 3.4 274.0 80.4
8/25/2017 23.7 6.3 14.6 0.0 3.4 274.0 82.2
8/24/2017 23.2 8.3 14.8 0.0 3.4 274.0 87.3
8/23/2017 22.6 11.2 16.7 0.0 21.0 274.0 88.8
8/22/2017 25.1 15.2 22.1 3.4 21.0 274.0 96.5
8/21/2017 29.7 16.9 23.0 0.0 17.6 270.6 92.2
8/20/2017 27.1 14.4 20.5 0.0 17.6 270.6 90.8
8/19/2017 24.9 13.8 19.4 0.0 17.6 270.6 88.4
8/18/2017 24.5 19.0 21.9 0.0 18.2 270.6 90.4
8/17/2017 23.2 16.6 20.8 17.6 20.0 270.6 99.4
8/16/2017 26.8 10.0 18.7 0.0 2.4 253.0 87.3
8/15/2017 28.1 13.2 21.3 0.0 2.4 253.0 87.8
8/14/2017 25.3 12.7 19.2 0.0 2.4 253.0 90.9
8/13/2017 25.8 10.9 18.3 0.0 2.4 253.0 86.5
8/12/2017 25.5 14.8 19.0 0.6 2.6 253.0 92.8
8/11/2017 23.7 18.6 20.7 1.8 2.0 252.4 99.0
8/10/2017 27.2 13.7 20.7 0.0 21.4 250.6 86.7
8/9/2017 27.8 14.4 20.8 0.0 21.6 250.6 82.8
8/8/2017 28.3 9.7 18.7 0.0 22.4 250.6 81.9
8/7/2017 26.7 12.8 18.6 0.0 22.4 250.6 88.7
8/6/2017 24.9 10.5 17.5 0.2 22.4 250.6 90.7
8/5/2017 23.0 11.6 17.4 0.0 22.2 250.4 81.9
8/4/2017 23.5 16.2 20.4 21.2 22.2 250.4 91.7
8/3/2017 27.8 14.7 21.8 0.2 1.0 229.2 91.5
8/2/2017 28.4 17.7 22.3 0.8 0.8 229.0 88.7
8/1/2017 30.8 14.7 23.2 0.0 0.0 228.2 75.6
7/31/2017 31.8 13.2 22.8 0.0 0.0 228.2 77.2
7/30/2017 31.0 12.8 22.0 0.0 0.0 228.2 76.0
7/29/2017 28.4 11.2 19.6 0.0 3.4 228.2 76.7
7/28/2017 24.7 12.6 19.5 0.0 4.4 228.2 85.1
7/27/2017 30.3 16.8 22.4 0.0 4.4 228.2 90.8
7/26/2017 25.4 12.7 19.4 0.0 4.4 228.2 92.4
7/25/2017 24.7 11.8 18.3 0.0 4.4 228.2 90.0
7/24/2017 20.0 15.3 17.7 0.0 4.4 228.2 95.4
7/23/2017 27.7 16.8 22.1 3.4 4.4 228.2 93.0
7/22/2017 26.1 19.8 22.6 1.0 7.0 224.8 98.3
7/21/2017 31.1 17.6 24.2 0.0 6.0 223.8 85.3
7/20/2017 31.0 17.3 24.3 0.0 6.0 223.8 87.8
7/19/2017 31.8 18.1 24.4 0.0 13.8 223.8 86.1
7/18/2017 25.9 11.8 19.6 0.0 27.8 223.8 91.6
7/17/2017 26.3 14.5 20.0 0.0 27.8 223.8 88.8
7/16/2017 26.2 15.7 20.0 6.0 32.2 223.8 95.6
7/15/2017 26.3 15.9 20.6 0.0 26.2 217.8 87.5
7/14/2017 27.9 17.2 22.3 0.0 26.4 217.8 90.4
7/13/2017 26.8 20.5 23.7 7.8 43.0 217.8 99.7
7/12/2017 26.7 20.4 23.3 14.0 35.2 210.0 98.8
7/11/2017 27.3 15.5 21.7 0.0 21.2 196.0 97.7
7/10/2017 22.3 16.4 19.4 4.4 21.2 196.0 97.1
7/9/2017 25.8 12.1 19.6 0.0 16.8 191.6 77.8
7/8/2017 24.9 12.4 19.8 0.2 16.8 191.6 82.4
7/7/2017 28.5 16.5 21.5 16.6 17.4 191.4 91.3
7/6/2017 29.3 12.8 21.0 0.0 3.4 174.8 84.6
7/5/2017 28.2 10.5 20.3 0.0 3.4 174.8 78.6
7/4/2017 25.7 9.6 18.4 0.0 3.6 174.8 82.9
7/3/2017 27.9 12.9 20.8 0.0 5.6 174.8 77.3
7/2/2017 27.7 13.3 21.2 0.0 5.6 174.8 81.2
7/1/2017 26.7 16.3 20.6 0.8 7.0 174.8 94.8
6/30/2017 27.3 18.1 21.7 2.6 14.0 174.0 96.6
6/29/2017 26.8 18.3 21.9 0.0 19.0 171.4 84.2
6/28/2017 22.3 9.9 17.2 0.2 22.4 171.4 82.7
6/27/2017 21.7 9.3 14.7 2.0 22.4 171.2 85.8
6/26/2017 21.4 10.8 16.1 0.0 23.2 169.2 81.3
6/25/2017 21.0 9.8 15.6 1.4 29.0 169.2 87.6
6/24/2017 24.8 12.7 18.5 7.8 33.4 167.8 85.7
6/23/2017 25.1 18.3 21.7 7.6 25.6 160.0 98.6
6/22/2017 28.7 12.5 20.9 3.4 18.0 152.4 90.6
6/21/2017 24.3 10.5 17.0 0.2 20.0 149.0 87.9
6/20/2017 24.0 13.2 17.4 2.8 19.8 148.8 87.6
6/19/2017 26.6 14.0 19.4 5.8 17.0 146.0 86.3
6/18/2017 27.6 18.6 24.1 5.8 11.2 140.2 84.7
6/17/2017 28.9 18.7 24.0 0.0 5.4 134.4 86.0
6/16/2017 28.9 18.1 23.1 0.0 5.6 134.4 82.9
6/15/2017 27.5 18.0 21.9 5.4 5.6 134.4 81.2
6/14/2017 27.5 16.7 22.0 0.0 0.2 129.0 73.0
6/13/2017 32.4 18.1 24.3 0.0 0.2 129.0 79.0
6/12/2017 32.7 21.2 26.6 0.0 0.2 129.0 65.5
6/11/2017 32.3 19.2 25.6 0.0 0.2 129.0 62.2
6/10/2017 30.9 10.6 22.3 0.2 3.2 129.0 71.6
6/9/2017 27.4 10.8 18.4 0.0 3.0 128.8 74.9
6/8/2017 22.9 6.2 15.6 0.0 3.0 128.8 73.7
6/7/2017 22.7 9.0 15.0 0.0 3.0 128.8 80.2
6/6/2017 19.6 9.9 14.1 0.0 3.0 128.8 94.0
6/5/2017 19.1 11.5 15.5 0.0 3.8 128.8 92.8
6/4/2017 27.5 13.3 19.5 3.0 12.2 128.8 88.5
6/3/2017 21.6 7.6 15.3 0.0 11.0 125.8 77.0
6/2/2017 23.1 8.4 15.0 0.0 11.0 125.8 78.7
6/1/2017 20.6 8.5 14.0 0.0 11.2 125.8 79.6
5/31/2017 21.7 10.2 16.5 0.0 43.6 125.8 76.4
5/30/2017 22.2 11.9 17.2 0.8 46.2 125.8 81.5
5/29/2017 23.6 12.3 17.6 8.4 45.4 125.0 89.5
5/28/2017 23.4 9.4 16.1 1.8 37.0 116.6 91.1
5/27/2017 21.5 8.7 15.3 0.0 47.6 114.8 90.2
5/26/2017 18.2 10.1 13.5 0.2 47.6 114.8 97.3
5/25/2017 13.8 12.5 13.2 32.4 47.4 114.6 100.0
5/24/2017 17.7 10.5 15.0 2.6 15.0 82.2 92.4
5/23/2017 22.2 10.3 16.6 0.0 12.4 79.6 78.8
5/22/2017 18.6 10.9 14.2 0.0 14.6 79.6 85.1
5/21/2017 18.7 12.3 15.0 12.4 14.6 79.6 97.3
5/20/2017 19.3 8.8 13.9 0.0 3.4 67.2 65.9
5/19/2017 18.8 6.2 10.5 0.0 3.6 67.2 86.4
5/18/2017 27.9 18.5 23.7 0.0 3.6 67.2 70.8
5/17/2017 28.0 15.8 22.3 0.0 4.4 67.2 74.9
5/16/2017 18.6 5.5 12.9 2.2 4.4 67.2 90.3
5/15/2017 20.8 1.8 11.6 0.0 2.2 65.0 73.6
5/14/2017 15.7 4.4 10.4 1.2 2.2 65.0 84.9
5/13/2017 22.2 2.6 12.0 0.2 1.0 63.8 79.5
5/12/2017 17.8 4.0 10.8 0.0 1.4 63.6 82.6
5/11/2017 17.4 6.9 11.2 0.8 24.6 63.6 72.8
5/10/2017 14.8 3.7 9.6 0.0 51.2 62.8 74.5
5/9/2017 14.5 -1.9 6.3 0.0 51.2 62.8 75.1
5/8/2017 12.4 -0.6 5.9 0.0 51.4 62.8 73.2
5/7/2017 11.0 0.0 6.3 0.0 62.8 62.8 72.3
5/6/2017 7.4 5.1 6.0 0.6 77.6 62.8 98.8
5/5/2017 8.0 5.1 6.6 23.2 77.6 62.2 100.0
5/4/2017 8.2 4.5 6.9 27.4 54.4 39.0 97.1
5/3/2017 14.7 3.2 8.7 0.0 29.6 11.6 77.2
5/2/2017 9.7 6.4 8.3 0.2 29.6 11.6 91.2
5/1/2017 17.0 8.2 12.4 11.4 31.8 11.4 97.0